createdAt,value
2018-10-11T00:01:31.225Z,14.50
2018-10-11T00:04:01.143Z,14.50
2018-10-11T00:06:31.219Z,14.50
2018-10-11T00:09:00.996Z,14.50
2018-10-11T00:11:30.866Z,14.40
2018-10-11T00:14:00.798Z,14.50
2018-10-11T00:16:30.654Z,14.50
2018-10-11T00:19:00.493Z,14.50
2018-10-11T00:21:30.393Z,14.50
2018-10-11T00:24:00.122Z,14.50
2018-10-11T00:26:29.952Z,14.50
2018-10-11T00:28:59.719Z,14.40
2018-10-11T00:31:29.576Z,14.40
2018-10-11T00:33:59.395Z,14.40
2018-10-11T00:36:29.364Z,14.40
2018-10-11T00:38:59.263Z,14.30
2018-10-11T00:41:29.274Z,14.30
2018-10-11T00:43:59.264Z,14.20
2018-10-11T00:46:29.229Z,14.20
2018-10-11T00:48:59.279Z,14.20
2018-10-11T00:51:29.306Z,14.10
2018-10-11T00:53:59.303Z,14.10
2018-10-11T00:56:29.398Z,14.10
2018-10-11T00:58:59.414Z,14.00
2018-10-11T01:01:29.264Z,13.90
2018-10-11T01:03:59.158Z,13.90
2018-10-11T01:06:29.149Z,13.90
2018-10-11T01:08:59.228Z,13.90
2018-10-11T01:11:29.166Z,13.90
2018-10-11T01:13:58.985Z,13.90
2018-10-11T01:16:28.919Z,13.90
2018-10-11T01:18:58.918Z,13.90
2018-10-11T01:21:28.826Z,13.90
2018-10-11T01:23:58.798Z,13.90
2018-10-11T01:26:28.777Z,13.90
2018-10-11T01:28:58.696Z,13.90
2018-10-11T01:31:28.536Z,13.90
2018-10-11T01:33:58.418Z,13.90
2018-10-11T01:36:28.526Z,13.90
2018-10-11T01:38:58.572Z,14.00
2018-10-11T01:41:28.618Z,14.00
2018-10-11T01:43:58.518Z,14.00
2018-10-11T01:46:28.436Z,14.00
2018-10-11T01:48:59.110Z,14.00
2018-10-11T01:51:29.208Z,14.10
2018-10-11T01:53:59.252Z,14.00
2018-10-11T01:56:29.738Z,14.10
2018-10-11T01:58:59.545Z,14.10
2018-10-11T02:01:29.720Z,14.20
2018-10-11T02:03:59.902Z,14.20
2018-10-11T02:06:29.898Z,14.30
2018-10-11T02:09:00.349Z,14.30
2018-10-11T02:11:30.261Z,14.30
2018-10-11T02:14:00.036Z,14.40
2018-10-11T02:16:30.142Z,14.40
2018-10-11T02:19:00.100Z,14.40
2018-10-11T02:21:30.381Z,14.40
2018-10-11T02:24:00.181Z,14.40
2018-10-11T02:26:30.145Z,14.40
2018-10-11T02:29:00.347Z,14.50
2018-10-11T02:31:30.315Z,14.40
2018-10-11T02:34:00.179Z,14.50
2018-10-11T02:36:30.312Z,14.40
2018-10-11T02:39:00.396Z,14.40
2018-10-11T02:41:30.291Z,14.40
2018-10-11T02:44:00.057Z,14.40
2018-10-11T02:46:30.096Z,14.40
2018-10-11T02:49:00.094Z,14.40
2018-10-11T02:51:30.123Z,14.40
2018-10-11T02:53:59.979Z,14.30
2018-10-11T02:56:29.840Z,14.40
2018-10-11T02:59:33.449Z,14.40
2018-10-11T03:02:12.927Z,14.40
2018-10-11T03:04:44.691Z,14.40
2018-10-11T03:07:14.758Z,14.40
2018-10-11T03:09:44.741Z,14.50
2018-10-11T03:12:14.692Z,14.40
2018-10-11T03:14:44.613Z,14.40
2018-10-11T03:17:14.536Z,14.40
2018-10-11T03:19:44.456Z,14.40
2018-10-11T03:22:14.457Z,14.40
2018-10-11T03:24:44.328Z,14.40
2018-10-11T03:27:14.088Z,14.40
2018-10-11T03:29:43.845Z,14.40
2018-10-11T03:32:13.709Z,14.40
2018-10-11T03:34:43.677Z,14.40
2018-10-11T03:37:13.490Z,14.40
2018-10-11T03:39:43.670Z,14.40
2018-10-11T03:42:13.490Z,14.40
2018-10-11T03:44:43.415Z,14.30
2018-10-11T03:47:13.176Z,14.30
2018-10-11T03:49:43.097Z,14.30
2018-10-11T03:52:13.005Z,14.30
2018-10-11T03:54:43.388Z,14.30
2018-10-11T03:57:13.265Z,14.30
2018-10-11T03:59:43.504Z,14.30
2018-10-11T04:02:13.365Z,14.30
2018-10-11T04:04:43.301Z,14.30
2018-10-11T04:07:13.132Z,14.30
2018-10-11T04:09:42.985Z,14.30
2018-10-11T04:12:12.829Z,14.30
2018-10-11T04:14:42.750Z,14.30
2018-10-11T04:17:12.563Z,14.30
2018-10-11T04:19:42.578Z,14.30
2018-10-11T04:22:12.745Z,14.30
2018-10-11T04:24:42.637Z,14.30
2018-10-11T04:27:12.534Z,14.30
2018-10-11T04:29:42.561Z,14.30
2018-10-11T04:32:12.380Z,14.30
2018-10-11T04:34:42.468Z,14.20
2018-10-11T04:37:12.558Z,14.20
2018-10-11T04:39:42.663Z,14.20
2018-10-11T04:42:12.594Z,14.20
2018-10-11T04:44:42.744Z,14.20
2018-10-11T04:47:12.648Z,14.20
2018-10-11T04:49:42.580Z,14.20
2018-10-11T04:52:12.404Z,14.10
2018-10-11T04:54:42.326Z,14.10
2018-10-11T04:57:12.226Z,14.10
2018-10-11T04:59:42.135Z,14.10
2018-10-11T05:02:11.910Z,14.10
2018-10-11T05:04:41.988Z,14.00
2018-10-11T05:07:12.530Z,14.00
2018-10-11T05:09:42.574Z,14.00
2018-10-11T05:12:12.496Z,14.10
2018-10-11T05:14:42.724Z,14.10
2018-10-11T05:17:12.942Z,14.10
2018-10-11T05:19:43.090Z,14.20
2018-10-11T05:22:12.946Z,14.20
2018-10-11T05:24:43.008Z,14.20
2018-10-11T05:27:13.508Z,14.20
2018-10-11T05:29:43.589Z,14.20
2018-10-11T05:32:13.755Z,14.20
2018-10-11T05:34:43.528Z,14.20
2018-10-11T05:37:13.681Z,14.20
2018-10-11T05:39:43.682Z,14.20
2018-10-11T05:42:14.231Z,14.10
2018-10-11T05:44:45.290Z,14.20
2018-10-11T05:47:15.195Z,14.20
2018-10-11T05:49:45.492Z,14.20
2018-10-11T05:52:15.682Z,14.20
2018-10-11T05:54:45.597Z,14.20
2018-10-11T05:57:15.540Z,14.20
2018-10-11T05:59:45.576Z,14.20
2018-10-11T06:02:16.210Z,14.30
2018-10-11T06:04:46.197Z,14.30
2018-10-11T06:07:16.547Z,14.30
2018-10-11T06:09:46.661Z,14.40
2018-10-11T06:12:17.359Z,14.40
2018-10-11T06:14:47.472Z,14.40
2018-10-11T06:17:17.399Z,14.40
2018-10-11T06:19:47.465Z,14.50
2018-10-11T06:22:17.377Z,14.50
2018-10-11T06:24:47.280Z,14.40
2018-10-11T06:27:17.129Z,14.50
2018-10-11T06:29:47.048Z,14.50
2018-10-11T06:32:17.056Z,14.50
2018-10-11T06:34:47.317Z,14.50
2018-10-11T06:37:17.333Z,14.50
2018-10-11T06:39:47.597Z,14.60
2018-10-11T06:42:17.615Z,14.60
2018-10-11T06:44:47.798Z,14.70
2018-10-11T06:47:19.625Z,14.70
2018-10-11T06:49:49.811Z,14.80
2018-10-11T06:52:19.952Z,14.90
2018-10-11T06:54:49.962Z,15.00
2018-10-11T06:57:19.879Z,15.10
2018-10-11T06:59:49.839Z,15.20
2018-10-11T07:02:19.918Z,15.20
2018-10-11T07:04:49.810Z,15.30
2018-10-11T07:07:19.684Z,15.40
2018-10-11T07:09:49.550Z,15.40
2018-10-11T07:12:19.466Z,15.50
2018-10-11T07:14:49.490Z,15.60
2018-10-11T07:17:19.460Z,15.70
2018-10-11T07:19:49.413Z,15.80
2018-10-11T07:22:19.408Z,15.90
2018-10-11T07:24:49.440Z,16.00
2018-10-11T07:27:19.475Z,16.10
2018-10-11T07:29:49.343Z,16.20
2018-10-11T07:32:19.340Z,16.30
2018-10-11T07:34:49.597Z,16.30
2018-10-11T07:37:19.357Z,16.40
2018-10-11T07:39:49.365Z,16.40
2018-10-11T07:42:19.708Z,16.40
2018-10-11T07:44:50.152Z,16.50
2018-10-11T07:47:20.122Z,16.50
2018-10-11T07:49:50.187Z,16.60
2018-10-11T07:52:20.335Z,16.70
2018-10-11T07:54:50.608Z,16.80
2018-10-11T07:57:20.541Z,16.80
2018-10-11T07:59:50.374Z,16.90
2018-10-11T08:02:20.766Z,17.00
2018-10-11T08:04:50.773Z,17.00
2018-10-11T08:07:20.848Z,17.10
2018-10-11T08:09:50.987Z,17.20
2018-10-11T08:12:21.041Z,17.30
2018-10-11T08:14:50.956Z,17.30
2018-10-11T08:17:21.294Z,17.40
2018-10-11T08:19:51.112Z,17.40
2018-10-11T08:22:20.928Z,17.50
2018-10-11T08:24:50.989Z,17.60
2018-10-11T08:27:20.992Z,17.60
2018-10-11T08:29:51.151Z,17.70
2018-10-11T08:32:21.744Z,17.80
2018-10-11T08:34:51.633Z,17.80
2018-10-11T08:37:21.644Z,17.80
2018-10-11T08:39:51.572Z,17.90
2018-10-11T08:42:21.553Z,18.00
2018-10-11T08:44:51.458Z,18.00
2018-10-11T08:47:21.417Z,18.20
2018-10-11T08:49:51.638Z,18.30
2018-10-11T08:52:21.707Z,18.30
2018-10-11T08:54:52.653Z,18.30
2018-10-11T08:57:23.309Z,18.40
2018-10-11T08:59:53.309Z,18.40
2018-10-11T09:02:23.364Z,18.40
2018-10-11T09:04:53.256Z,18.50
2018-10-11T09:07:23.237Z,18.60
2018-10-11T09:09:53.686Z,18.70
2018-10-11T09:12:23.283Z,18.70
2018-10-11T09:14:53.728Z,18.80
2018-10-11T09:17:23.734Z,18.90
2018-10-11T09:19:53.463Z,18.90
2018-10-11T09:22:23.542Z,18.90
2018-10-11T09:24:53.423Z,19.00
2018-10-11T09:27:23.354Z,19.10
2018-10-11T09:29:53.277Z,19.10
2018-10-11T09:32:23.094Z,19.10
2018-10-11T09:34:53.163Z,19.20
2018-10-11T09:37:23.178Z,19.20
2018-10-11T09:39:53.413Z,19.20
2018-10-11T09:42:23.285Z,19.30
2018-10-11T09:44:53.243Z,19.30
2018-10-11T09:47:23.268Z,19.30
2018-10-11T09:49:53.197Z,19.30
2018-10-11T09:52:23.172Z,19.30
2018-10-11T09:54:53.167Z,19.30
2018-10-11T09:57:27.315Z,19.30
2018-10-11T09:59:57.695Z,19.40
2018-10-11T10:02:28.165Z,19.40
2018-10-11T10:05:01.474Z,19.50
2018-10-11T10:07:31.442Z,19.60
2018-10-11T10:10:01.859Z,19.70
2018-10-11T10:12:31.827Z,19.70
2018-10-11T10:15:01.758Z,19.70
2018-10-11T10:17:31.784Z,19.80
2018-10-11T10:20:01.952Z,19.90
2018-10-11T10:22:31.975Z,19.90
2018-10-11T10:25:01.859Z,19.90
2018-10-11T10:27:32.164Z,20.00
2018-10-11T10:30:05.975Z,20.00
2018-10-11T10:32:36.110Z,20.00
2018-10-11T10:35:06.067Z,20.10
2018-10-11T10:37:36.163Z,20.20
2018-10-11T10:40:06.236Z,20.30
2018-10-11T10:42:36.230Z,20.40
2018-10-11T10:45:06.781Z,20.50
2018-10-11T10:47:36.710Z,20.50
2018-10-11T10:50:06.687Z,20.70
2018-10-11T10:52:36.637Z,20.70
2018-10-11T10:55:07.000Z,20.70
2018-10-11T10:57:37.127Z,20.70
2018-10-11T11:00:08.024Z,20.80
2018-10-11T11:02:38.101Z,20.80
2018-10-11T11:05:08.211Z,20.90
2018-10-11T11:07:38.123Z,20.90
2018-10-11T11:10:09.161Z,20.90
2018-10-11T11:12:39.199Z,21.00
2018-10-11T11:15:09.226Z,21.10
2018-10-11T11:17:39.467Z,21.00
2018-10-11T11:20:09.620Z,21.00
2018-10-11T11:22:39.538Z,21.10
2018-10-11T11:25:09.381Z,21.20
2018-10-11T11:27:39.455Z,21.20
2018-10-11T11:30:09.600Z,21.30
2018-10-11T11:32:39.768Z,21.30
2018-10-11T11:35:09.683Z,21.30
2018-10-11T11:37:39.776Z,21.30
2018-10-11T11:40:10.198Z,21.30
2018-10-11T11:42:40.081Z,21.30
2018-10-11T11:45:10.226Z,21.30
2018-10-11T11:47:40.249Z,21.40
2018-10-11T11:50:10.301Z,21.50
2018-10-11T11:52:40.178Z,21.40
2018-10-11T11:55:10.100Z,21.30
2018-10-11T11:57:40.124Z,21.40
2018-10-11T12:00:10.263Z,21.40
2018-10-11T12:02:40.372Z,21.40
2018-10-11T12:05:10.223Z,21.40
2018-10-11T12:07:40.700Z,21.50
2018-10-11T12:10:10.864Z,21.50
2018-10-11T12:13:00.390Z,21.60
2018-10-11T12:15:31.486Z,21.80
2018-10-11T12:18:02.633Z,21.90
2018-10-11T12:20:33.809Z,21.90
2018-10-11T12:23:04.871Z,21.90
2018-10-11T12:25:35.362Z,22.10
2018-10-11T12:28:05.301Z,22.00
2018-10-11T12:30:35.777Z,22.10
2018-10-11T12:33:05.817Z,22.00
2018-10-11T12:35:37.584Z,22.00
2018-10-11T12:38:08.762Z,22.20
2018-10-11T12:40:38.860Z,22.30
2018-10-11T12:43:08.948Z,22.30
2018-10-11T12:45:40.056Z,22.20
2018-10-11T12:48:09.946Z,22.10
2018-10-11T12:50:39.878Z,22.00
2018-10-11T12:53:10.069Z,21.90
2018-10-11T12:55:39.917Z,21.80
2018-10-11T12:58:09.883Z,21.70
2018-10-11T13:00:39.855Z,21.60
2018-10-11T13:03:10.505Z,21.60
2018-10-11T13:05:41.389Z,21.60
2018-10-11T13:08:11.444Z,21.60
2018-10-11T13:10:41.662Z,21.60
2018-10-11T13:13:11.508Z,21.60
2018-10-11T13:15:41.550Z,21.50
2018-10-11T13:18:11.624Z,21.40
2018-10-11T13:20:42.074Z,21.40
2018-10-11T13:23:15.754Z,21.40
2018-10-11T13:25:41.814Z,21.30
2018-10-11T13:28:12.025Z,21.30
2018-10-11T13:30:41.901Z,21.30
2018-10-11T13:33:11.916Z,21.30
2018-10-11T13:35:41.961Z,21.30
2018-10-11T13:38:12.226Z,21.30
2018-10-11T13:40:42.313Z,21.30
2018-10-11T13:43:12.070Z,21.20
2018-10-11T13:45:42.081Z,21.20
2018-10-11T13:48:12.073Z,21.20
2018-10-11T13:50:41.875Z,21.10
2018-10-11T13:53:15.423Z,21.00
2018-10-11T13:55:46.943Z,20.90
2018-10-11T13:58:11.929Z,21.00
2018-10-11T14:00:42.505Z,21.00
2018-10-11T14:03:12.596Z,21.00
2018-10-11T14:05:42.435Z,21.10
2018-10-11T14:08:12.439Z,21.10
2018-10-11T14:10:42.417Z,21.10
2018-10-11T14:13:15.089Z,21.10
2018-10-11T14:15:42.314Z,21.10
2018-10-11T14:18:12.769Z,21.10
2018-10-11T14:20:42.657Z,21.10
2018-10-11T14:23:12.916Z,21.10
2018-10-11T14:25:42.868Z,21.20
2018-10-11T14:28:12.852Z,21.20
2018-10-11T14:30:42.827Z,21.10
2018-10-11T14:33:12.902Z,21.20
2018-10-11T14:35:42.772Z,21.20
2018-10-11T14:38:12.647Z,21.20
2018-10-11T14:40:42.625Z,21.20
2018-10-11T14:43:12.742Z,21.20
2018-10-11T14:45:42.625Z,21.20
2018-10-11T14:48:13.024Z,21.30
2018-10-11T14:50:43.207Z,21.30
2018-10-11T14:53:13.365Z,21.40
2018-10-11T14:55:43.306Z,21.50
2018-10-11T14:58:13.538Z,21.50
2018-10-11T15:00:43.474Z,21.60
2018-10-11T15:03:13.525Z,21.70
2018-10-11T15:05:43.861Z,21.60
2018-10-11T15:08:13.957Z,21.70
2018-10-11T15:10:44.045Z,21.70
2018-10-11T15:13:13.860Z,21.80
2018-10-11T15:15:46.029Z,21.70
2018-10-11T15:18:15.951Z,21.70
2018-10-11T15:20:46.354Z,21.70
2018-10-11T15:23:16.684Z,21.70
2018-10-11T15:25:46.795Z,21.60
2018-10-11T15:28:16.634Z,21.60
2018-10-11T15:30:47.057Z,21.50
2018-10-11T15:33:16.753Z,21.50
2018-10-11T15:35:46.766Z,21.30
2018-10-11T15:38:17.017Z,21.30
2018-10-11T15:40:47.045Z,21.30
2018-10-11T15:43:17.004Z,21.20
2018-10-11T15:45:46.954Z,21.20
2018-10-11T15:48:16.809Z,21.20
2018-10-11T15:50:46.816Z,21.20
2018-10-11T15:53:16.765Z,21.20
2018-10-11T15:55:47.031Z,21.10
2018-10-11T15:58:17.194Z,21.10
2018-10-11T16:00:47.223Z,21.10
2018-10-11T16:03:17.394Z,21.10
2018-10-11T16:05:47.458Z,21.00
2018-10-11T16:08:17.314Z,20.90
2018-10-11T16:10:47.630Z,20.90
2018-10-11T16:13:17.481Z,20.90
2018-10-11T16:15:47.775Z,20.90
2018-10-11T16:18:17.811Z,20.90
2018-10-11T16:20:47.742Z,20.90
2018-10-11T16:23:17.643Z,20.90
2018-10-11T16:25:47.946Z,20.80
2018-10-11T16:28:17.944Z,20.70
2018-10-11T16:30:49.170Z,20.70
2018-10-11T16:33:19.373Z,20.60
2018-10-11T16:35:49.541Z,20.60
2018-10-11T16:38:19.340Z,20.60
2018-10-11T16:40:49.304Z,20.60
2018-10-11T16:43:19.205Z,20.50
2018-10-11T16:45:49.172Z,20.50
2018-10-11T16:48:19.306Z,20.40
2018-10-11T16:50:49.144Z,20.40
2018-10-11T16:53:19.093Z,20.30
2018-10-11T16:55:49.379Z,20.30
2018-10-11T16:58:19.753Z,20.20
2018-10-11T17:00:49.991Z,20.10
2018-10-11T17:03:20.390Z,20.20
2018-10-11T17:05:50.192Z,20.10
2018-10-11T17:08:20.211Z,20.10
2018-10-11T17:10:50.306Z,20.00
2018-10-11T17:13:20.124Z,20.00
2018-10-11T17:15:50.135Z,19.90
2018-10-11T17:18:20.190Z,19.90
2018-10-11T17:20:50.257Z,19.80
2018-10-11T17:23:20.364Z,19.80
2018-10-11T17:25:50.607Z,19.70
2018-10-11T17:28:20.691Z,19.60
2018-10-11T17:30:50.842Z,19.60
2018-10-11T17:33:20.991Z,19.60
2018-10-11T17:35:51.072Z,19.50
2018-10-11T17:38:21.726Z,19.50
2018-10-11T17:40:51.742Z,19.50
2018-10-11T17:43:21.576Z,19.40
2018-10-11T17:45:51.504Z,19.40
2018-10-11T17:48:21.537Z,19.40
2018-10-11T17:50:52.087Z,19.40
2018-10-11T17:53:22.308Z,19.30
2018-10-11T17:55:52.384Z,19.30
2018-10-11T17:58:22.604Z,19.30
2018-10-11T18:00:52.951Z,19.30
2018-10-11T18:03:22.938Z,19.30
2018-10-11T18:05:52.764Z,19.30
2018-10-11T18:08:22.909Z,19.20
2018-10-11T18:10:53.215Z,19.20
2018-10-11T18:13:23.033Z,19.30
2018-10-11T18:15:52.894Z,19.20
2018-10-11T18:18:23.013Z,19.20
2018-10-11T18:20:52.884Z,19.20
2018-10-11T18:23:22.945Z,19.20
2018-10-11T18:25:52.949Z,19.20
2018-10-11T18:28:23.008Z,19.10
2018-10-11T18:30:53.098Z,19.10
2018-10-11T18:33:23.113Z,19.10
2018-10-11T18:35:53.334Z,19.10
2018-10-11T18:38:23.362Z,19.00
2018-10-11T18:40:53.480Z,19.00
2018-10-11T18:43:23.544Z,19.00
2018-10-11T18:45:53.400Z,19.00
2018-10-11T18:48:23.471Z,19.00
2018-10-11T18:50:53.406Z,19.00
2018-10-11T18:53:23.447Z,19.00
2018-10-11T18:55:53.667Z,19.00
2018-10-11T18:58:23.723Z,18.90
2018-10-11T19:00:53.726Z,18.90
2018-10-11T19:03:23.514Z,19.00
2018-10-11T19:05:53.491Z,18.90
2018-10-11T19:08:23.397Z,18.90
2018-10-11T19:10:53.258Z,18.90
2018-10-11T19:13:23.109Z,18.90
2018-10-11T19:15:53.001Z,18.90
2018-10-11T19:18:22.912Z,18.90
2018-10-11T19:20:52.920Z,18.90
2018-10-11T19:23:23.195Z,18.90
2018-10-11T19:25:53.208Z,18.90
2018-10-11T19:28:23.053Z,18.90
2018-10-11T19:30:53.204Z,18.80
2018-10-11T19:33:23.391Z,18.80
2018-10-11T19:35:53.281Z,18.80
2018-10-11T19:38:23.232Z,18.70
2018-10-11T19:40:53.384Z,18.70
2018-10-11T19:43:23.481Z,18.70
2018-10-11T19:45:53.516Z,18.60
2018-10-11T19:48:23.763Z,18.60
2018-10-11T19:50:53.746Z,18.60
2018-10-11T19:53:23.684Z,18.60
2018-10-11T19:55:53.568Z,18.60
2018-10-11T19:58:23.600Z,18.60
2018-10-11T20:00:53.512Z,18.60
2018-10-11T20:03:23.362Z,18.60
2018-10-11T20:05:53.401Z,18.60
2018-10-11T20:08:23.532Z,18.60
2018-10-11T20:10:53.461Z,18.60
2018-10-11T20:13:23.425Z,18.70
2018-10-11T20:15:53.484Z,18.60
2018-10-11T20:18:23.378Z,18.60
2018-10-11T20:20:53.369Z,18.60
2018-10-11T20:23:23.315Z,18.60
2018-10-11T20:25:53.399Z,18.60
2018-10-11T20:28:23.397Z,18.60
2018-10-11T20:30:53.624Z,18.60
2018-10-11T20:33:23.544Z,18.60
2018-10-11T20:35:53.721Z,18.60
2018-10-11T20:38:23.598Z,18.60
2018-10-11T20:40:54.069Z,18.60
2018-10-11T20:43:24.038Z,18.60
2018-10-11T20:45:53.970Z,18.60
2018-10-11T20:48:23.765Z,18.60
2018-10-11T20:50:53.790Z,18.60
2018-10-11T20:53:23.835Z,18.60
2018-10-11T20:55:53.818Z,18.60
2018-10-11T20:58:24.056Z,18.60
2018-10-11T21:00:54.070Z,18.50
2018-10-11T21:03:24.084Z,18.50
2018-10-11T21:05:54.098Z,18.50
2018-10-11T21:08:23.955Z,18.40
2018-10-11T21:11:04.773Z,18.40
2018-10-11T21:13:34.665Z,18.40
2018-10-11T21:16:04.558Z,18.40
2018-10-11T21:18:34.514Z,18.40
2018-10-11T21:21:04.535Z,18.40
2018-10-11T21:23:34.375Z,18.30
2018-10-11T21:26:04.591Z,18.30
2018-10-11T21:28:34.681Z,18.30
2018-10-11T21:31:04.749Z,18.30
2018-10-11T21:33:35.117Z,18.30
2018-10-11T21:36:04.968Z,18.30
2018-10-11T21:38:34.892Z,18.30
2018-10-11T21:41:05.001Z,18.30
2018-10-11T21:43:34.818Z,18.30
2018-10-11T21:46:04.860Z,18.30
2018-10-11T21:48:34.702Z,18.20
2018-10-11T21:51:04.993Z,18.20
2018-10-11T21:53:34.999Z,18.20
2018-10-11T21:56:04.923Z,18.20
2018-10-11T21:58:34.821Z,18.20
2018-10-11T22:01:09.933Z,18.20
2018-10-11T22:03:40.094Z,18.20
2018-10-11T22:06:10.650Z,18.20
2018-10-11T22:08:41.336Z,18.20
2018-10-11T22:11:12.073Z,18.20
2018-10-11T22:13:42.377Z,18.20
2018-10-11T22:16:12.558Z,18.10
2018-10-11T22:18:42.977Z,18.10
2018-10-11T22:21:13.376Z,18.10
2018-10-11T22:23:44.003Z,18.10
2018-10-11T22:26:13.958Z,18.10
2018-10-11T22:28:43.864Z,18.10
2018-10-11T22:31:14.174Z,18.00
2018-10-11T22:33:44.100Z,18.00
2018-10-11T22:36:14.074Z,17.90
2018-10-11T22:38:44.027Z,17.90
2018-10-11T22:41:14.097Z,17.90
2018-10-11T22:43:44.160Z,17.90
2018-10-11T22:46:14.286Z,17.90
2018-10-11T22:48:44.323Z,17.90
2018-10-11T22:51:14.191Z,17.90
2018-10-11T22:53:44.061Z,17.80
2018-10-11T22:56:14.192Z,17.80
2018-10-11T22:58:44.239Z,17.80
2018-10-11T23:01:14.848Z,17.80
2018-10-11T23:03:44.809Z,17.70
2018-10-11T23:06:14.685Z,17.70
2018-10-11T23:08:44.532Z,17.70
2018-10-11T23:11:14.478Z,17.70
2018-10-11T23:13:44.458Z,17.80
2018-10-11T23:16:14.393Z,17.80
2018-10-11T23:18:44.237Z,17.70
2018-10-11T23:21:14.301Z,17.70
2018-10-11T23:23:45.048Z,17.70
2018-10-11T23:26:15.039Z,17.70
2018-10-11T23:28:44.986Z,17.70
2018-10-11T23:31:15.136Z,17.70
2018-10-11T23:33:45.545Z,17.70
2018-10-11T23:36:15.520Z,17.60
2018-10-11T23:38:45.492Z,17.60
2018-10-11T23:41:15.533Z,17.60
2018-10-11T23:43:45.481Z,17.60
2018-10-11T23:46:15.393Z,17.60
2018-10-11T23:48:45.263Z,17.60
2018-10-11T23:51:15.143Z,17.60
2018-10-11T23:53:56.159Z,17.60
2018-10-11T23:56:26.057Z,17.60
2018-10-11T23:58:56.303Z,17.50
